sensor_id;sensor_type;location;lat;lon;timestamp;P1;durP1;ratioP1;P2;durP2;ratioP2
15976;SDS011;8091;51.914;12.786;2022-08-25T00:00:44;8.88;;;6.18;;
15976;SDS011;8091;51.914;12.786;2022-08-25T00:03:10;7.80;;;6.30;;
15976;SDS011;8091;51.914;12.786;2022-08-25T00:05:36;10.50;;;6.32;;
15976;SDS011;8091;51.914;12.786;2022-08-25T00:08:02;14.40;;;7.18;;
15976;SDS011;8091;51.914;12.786;2022-08-25T00:10:30;8.82;;;6.88;;
15976;SDS011;8091;51.914;12.786;2022-08-25T00:12:58;9.88;;;7.00;;
15976;SDS011;8091;51.914;12.786;2022-08-25T00:15:24;15.68;;;7.43;;
15976;SDS011;8091;51.914;12.786;2022-08-25T00:17:50;12.65;;;7.25;;
15976;SDS011;8091;51.914;12.786;2022-08-25T00:20:16;11.23;;;6.63;;
15976;SDS011;8091;51.914;12.786;2022-08-25T00:22:42;13.05;;;7.30;;
15976;SDS011;8091;51.914;12.786;2022-08-25T00:25:07;14.68;;;6.80;;
15976;SDS011;8091;51.914;12.786;2022-08-25T00:27:34;11.13;;;7.70;;
15976;SDS011;8091;51.914;12.786;2022-08-25T00:29:59;9.45;;;7.43;;
15976;SDS011;8091;51.914;12.786;2022-08-25T00:32:25;10.55;;;7.13;;
15976;SDS011;8091;51.914;12.786;2022-08-25T00:34:51;9.88;;;7.55;;
15976;SDS011;8091;51.914;12.786;2022-08-25T00:37:17;11.63;;;6.45;;
15976;SDS011;8091;51.914;12.786;2022-08-25T00:39:43;10.40;;;7.00;;
15976;SDS011;8091;51.914;12.786;2022-08-25T00:42:09;8.63;;;7.38;;
15976;SDS011;8091;51.914;12.786;2022-08-25T00:44:37;12.32;;;6.97;;
15976;SDS011;8091;51.914;12.786;2022-08-25T00:47:04;12.65;;;7.53;;
15976;SDS011;8091;51.914;12.786;2022-08-25T00:52:18;12.30;;;7.50;;
15976;SDS011;8091;51.914;12.786;2022-08-25T00:57:32;12.45;;;7.50;;
15976;SDS011;8091;51.914;12.786;2022-08-25T01:00:09;10.00;;;7.40;;
15976;SDS011;8091;51.914;12.786;2022-08-25T01:02:36;10.50;;;7.85;;
15976;SDS011;8091;51.914;12.786;2022-08-25T01:05:02;11.43;;;7.82;;
15976;SDS011;8091;51.914;12.786;2022-08-25T01:07:28;10.00;;;6.95;;
15976;SDS011;8091;51.914;12.786;2022-08-25T01:09:54;12.48;;;7.78;;
15976;SDS011;8091;51.914;12.786;2022-08-25T01:12:20;11.60;;;7.75;;
15976;SDS011;8091;51.914;12.786;2022-08-25T01:14:46;9.25;;;7.65;;
15976;SDS011;8091;51.914;12.786;2022-08-25T01:17:14;14.15;;;7.32;;
15976;SDS011;8091;51.914;12.786;2022-08-25T01:19:39;13.98;;;6.97;;
15976;SDS011;8091;51.914;12.786;2022-08-25T01:22:06;14.95;;;8.15;;
15976;SDS011;8091;51.914;12.786;2022-08-25T01:25:20;11.27;;;7.63;;
15976;SDS011;8091;51.914;12.786;2022-08-25T01:27:21;11.02;;;7.30;;
15976;SDS011;8091;51.914;12.786;2022-08-25T01:29:46;10.52;;;7.88;;
15976;SDS011;8091;51.914;12.786;2022-08-25T01:32:13;10.40;;;7.03;;
15976;SDS011;8091;51.914;12.786;2022-08-25T01:34:40;12.98;;;7.85;;
15976;SDS011;8091;51.914;12.786;2022-08-25T01:37:07;14.60;;;8.05;;
15976;SDS011;8091;51.914;12.786;2022-08-25T01:39:35;18.75;;;8.35;;
15976;SDS011;8091;51.914;12.786;2022-08-25T01:42:17;14.13;;;8.80;;
15976;SDS011;8091;51.914;12.786;2022-08-25T01:44:48;16.25;;;7.10;;
15976;SDS011;8091;51.914;12.786;2022-08-25T01:47:14;13.27;;;7.82;;
15976;SDS011;8091;51.914;12.786;2022-08-25T01:49:40;17.80;;;8.45;;
15976;SDS011;8091;51.914;12.786;2022-08-25T01:52:10;10.27;;;7.75;;
15976;SDS011;8091;51.914;12.786;2022-08-25T01:54:36;13.55;;;7.93;;
15976;SDS011;8091;51.914;12.786;2022-08-25T01:57:02;13.63;;;8.57;;
15976;SDS011;8091;51.914;12.786;2022-08-25T01:59:28;19.10;;;8.27;;
15976;SDS011;8091;51.914;12.786;2022-08-25T02:01:53;13.18;;;8.23;;
15976;SDS011;8091;51.914;12.786;2022-08-25T02:04:19;13.10;;;8.23;;
15976;SDS011;8091;51.914;12.786;2022-08-25T02:06:45;11.63;;;8.38;;
15976;SDS011;8091;51.914;12.786;2022-08-25T02:09:16;16.42;;;7.93;;
15976;SDS011;8091;51.914;12.786;2022-08-25T02:11:43;14.35;;;7.85;;
15976;SDS011;8091;51.914;12.786;2022-08-25T02:14:11;13.30;;;8.77;;
15976;SDS011;8091;51.914;12.786;2022-08-25T02:16:38;12.13;;;8.13;;
15976;SDS011;8091;51.914;12.786;2022-08-25T02:19:06;16.25;;;8.43;;
15976;SDS011;8091;51.914;12.786;2022-08-25T02:21:34;14.88;;;8.05;;
15976;SDS011;8091;51.914;12.786;2022-08-25T02:24:00;11.40;;;8.55;;
15976;SDS011;8091;51.914;12.786;2022-08-25T02:26:26;11.52;;;8.43;;
15976;SDS011;8091;51.914;12.786;2022-08-25T02:28:53;18.10;;;8.45;;
15976;SDS011;8091;51.914;12.786;2022-08-25T02:31:20;20.30;;;8.25;;
15976;SDS011;8091;51.914;12.786;2022-08-25T02:33:47;14.80;;;8.70;;
15976;SDS011;8091;51.914;12.786;2022-08-25T02:36:14;11.73;;;8.35;;
15976;SDS011;8091;51.914;12.786;2022-08-25T02:38:40;22.50;;;10.25;;
15976;SDS011;8091;51.914;12.786;2022-08-25T02:41:13;16.67;;;9.00;;
15976;SDS011;8091;51.914;12.786;2022-08-25T02:43:41;21.55;;;9.75;;
15976;SDS011;8091;51.914;12.786;2022-08-25T02:46:08;15.88;;;8.63;;
15976;SDS011;8091;51.914;12.786;2022-08-25T02:48:36;11.25;;;9.25;;
15976;SDS011;8091;51.914;12.786;2022-08-25T02:51:02;17.65;;;8.73;;
15976;SDS011;8091;51.914;12.786;2022-08-25T02:53:30;15.05;;;9.50;;
15976;SDS011;8091;51.914;12.786;2022-08-25T02:55:56;16.02;;;9.32;;
15976;SDS011;8091;51.914;12.786;2022-08-25T02:58:23;10.70;;;9.50;;
15976;SDS011;8091;51.914;12.786;2022-08-25T03:00:49;14.27;;;9.07;;
15976;SDS011;8091;51.914;12.786;2022-08-25T03:03:15;14.80;;;9.70;;
15976;SDS011;8091;51.914;12.786;2022-08-25T03:05:41;17.55;;;9.52;;
15976;SDS011;8091;51.914;12.786;2022-08-25T03:08:08;11.02;;;9.68;;
15976;SDS011;8091;51.914;12.786;2022-08-25T03:10:35;15.02;;;9.80;;
15976;SDS011;8091;51.914;12.786;2022-08-25T03:13:00;13.68;;;9.70;;
15976;SDS011;8091;51.914;12.786;2022-08-25T03:15:26;17.15;;;9.55;;
15976;SDS011;8091;51.914;12.786;2022-08-25T03:17:53;16.35;;;9.73;;
15976;SDS011;8091;51.914;12.786;2022-08-25T03:20:20;13.10;;;10.55;;
15976;SDS011;8091;51.914;12.786;2022-08-25T03:22:47;18.67;;;10.63;;
15976;SDS011;8091;51.914;12.786;2022-08-25T03:25:13;14.77;;;10.63;;
15976;SDS011;8091;51.914;12.786;2022-08-25T03:27:58;18.00;;;11.45;;
15976;SDS011;8091;51.914;12.786;2022-08-25T03:30:25;16.17;;;10.05;;
15976;SDS011;8091;51.914;12.786;2022-08-25T03:32:53;17.05;;;10.68;;
15976;SDS011;8091;51.914;12.786;2022-08-25T03:35:19;19.17;;;10.95;;
15976;SDS011;8091;51.914;12.786;2022-08-25T03:37:44;16.13;;;10.50;;
15976;SDS011;8091;51.914;12.786;2022-08-25T03:40:11;18.92;;;10.40;;
15976;SDS011;8091;51.914;12.786;2022-08-25T03:42:42;11.38;;;10.00;;
15976;SDS011;8091;51.914;12.786;2022-08-25T03:45:09;15.45;;;10.57;;
15976;SDS011;8091;51.914;12.786;2022-08-25T03:47:37;15.60;;;10.15;;
15976;SDS011;8091;51.914;12.786;2022-08-25T03:50:04;21.48;;;11.57;;
15976;SDS011;8091;51.914;12.786;2022-08-25T03:52:32;15.57;;;10.75;;
15976;SDS011;8091;51.914;12.786;2022-08-25T03:54:58;16.17;;;12.15;;
15976;SDS011;8091;51.914;12.786;2022-08-25T03:57:24;18.90;;;11.52;;
15976;SDS011;8091;51.914;12.786;2022-08-25T03:59:50;22.08;;;13.20;;
15976;SDS011;8091;51.914;12.786;2022-08-25T04:02:16;16.85;;;11.38;;
15976;SDS011;8091;51.914;12.786;2022-08-25T04:04:42;19.17;;;11.52;;
15976;SDS011;8091;51.914;12.786;2022-08-25T04:07:07;16.52;;;11.35;;
15976;SDS011;8091;51.914;12.786;2022-08-25T04:09:33;15.63;;;12.13;;
15976;SDS011;8091;51.914;12.786;2022-08-25T04:11:59;14.98;;;11.25;;
15976;SDS011;8091;51.914;12.786;2022-08-25T04:14:25;17.08;;;11.73;;
15976;SDS011;8091;51.914;12.786;2022-08-25T04:16:51;15.90;;;11.40;;
15976;SDS011;8091;51.914;12.786;2022-08-25T04:19:17;13.75;;;11.13;;
15976;SDS011;8091;51.914;12.786;2022-08-25T04:21:42;19.50;;;11.60;;
15976;SDS011;8091;51.914;12.786;2022-08-25T04:24:09;16.15;;;11.43;;
15976;SDS011;8091;51.914;12.786;2022-08-25T04:26:38;18.27;;;10.90;;
15976;SDS011;8091;51.914;12.786;2022-08-25T04:29:15;17.73;;;11.70;;
15976;SDS011;8091;51.914;12.786;2022-08-25T04:31:44;16.55;;;10.98;;
15976;SDS011;8091;51.914;12.786;2022-08-25T04:34:11;15.80;;;10.80;;
15976;SDS011;8091;51.914;12.786;2022-08-25T04:36:37;17.38;;;11.43;;
15976;SDS011;8091;51.914;12.786;2022-08-25T04:39:04;17.88;;;11.85;;
15976;SDS011;8091;51.914;12.786;2022-08-25T04:41:30;17.73;;;10.57;;
15976;SDS011;8091;51.914;12.786;2022-08-25T04:43:57;22.25;;;12.85;;
15976;SDS011;8091;51.914;12.786;2022-08-25T04:46:25;18.35;;;12.48;;
15976;SDS011;8091;51.914;12.786;2022-08-25T04:48:53;20.08;;;11.68;;
15976;SDS011;8091;51.914;12.786;2022-08-25T04:51:23;14.82;;;11.77;;
15976;SDS011;8091;51.914;12.786;2022-08-25T04:53:52;15.68;;;10.77;;
15976;SDS011;8091;51.914;12.786;2022-08-25T04:56:21;18.80;;;12.70;;
15976;SDS011;8091;51.914;12.786;2022-08-25T04:58:50;16.40;;;12.18;;
15976;SDS011;8091;51.914;12.786;2022-08-25T05:01:18;20.92;;;12.43;;
15976;SDS011;8091;51.914;12.786;2022-08-25T05:03:46;13.45;;;11.60;;
15976;SDS011;8091;51.914;12.786;2022-08-25T05:06:16;18.05;;;12.40;;
15976;SDS011;8091;51.914;12.786;2022-08-25T05:08:42;18.40;;;13.13;;
15976;SDS011;8091;51.914;12.786;2022-08-25T05:11:09;13.88;;;11.70;;
15976;SDS011;8091;51.914;12.786;2022-08-25T05:13:38;15.82;;;11.80;;
15976;SDS011;8091;51.914;12.786;2022-08-25T05:16:05;26.85;;;11.80;;
15976;SDS011;8091;51.914;12.786;2022-08-25T05:18:31;22.65;;;12.32;;
15976;SDS011;8091;51.914;12.786;2022-08-25T05:21:06;17.50;;;11.73;;
15976;SDS011;8091;51.914;12.786;2022-08-25T05:23:36;22.50;;;10.95;;
15976;SDS011;8091;51.914;12.786;2022-08-25T05:26:04;15.85;;;10.55;;
15976;SDS011;8091;51.914;12.786;2022-08-25T05:28:41;17.42;;;11.63;;
15976;SDS011;8091;51.914;12.786;2022-08-25T05:31:07;18.25;;;12.27;;
15976;SDS011;8091;51.914;12.786;2022-08-25T05:33:35;17.30;;;11.90;;
15976;SDS011;8091;51.914;12.786;2022-08-25T05:36:02;19.65;;;12.52;;
15976;SDS011;8091;51.914;12.786;2022-08-25T05:38:28;15.00;;;11.70;;
15976;SDS011;8091;51.914;12.786;2022-08-25T05:41:00;22.65;;;12.85;;
15976;SDS011;8091;51.914;12.786;2022-08-25T05:43:28;16.45;;;12.40;;
15976;SDS011;8091;51.914;12.786;2022-08-25T05:45:54;19.42;;;12.40;;
15976;SDS011;8091;51.914;12.786;2022-08-25T05:48:21;17.35;;;11.85;;
15976;SDS011;8091;51.914;12.786;2022-08-25T05:50:52;18.90;;;12.05;;
15976;SDS011;8091;51.914;12.786;2022-08-25T05:53:19;18.70;;;13.52;;
15976;SDS011;8091;51.914;12.786;2022-08-25T05:55:45;20.90;;;14.13;;
15976;SDS011;8091;51.914;12.786;2022-08-25T05:58:11;20.63;;;12.43;;
15976;SDS011;8091;51.914;12.786;2022-08-25T06:00:37;21.73;;;13.32;;
15976;SDS011;8091;51.914;12.786;2022-08-25T06:03:04;18.88;;;12.27;;
15976;SDS011;8091;51.914;12.786;2022-08-25T06:05:30;19.48;;;12.93;;
15976;SDS011;8091;51.914;12.786;2022-08-25T06:07:56;17.15;;;13.25;;
15976;SDS011;8091;51.914;12.786;2022-08-25T06:10:23;29.65;;;14.23;;
15976;SDS011;8091;51.914;12.786;2022-08-25T06:12:49;23.65;;;14.20;;
15976;SDS011;8091;51.914;12.786;2022-08-25T06:15:16;19.85;;;13.50;;
15976;SDS011;8091;51.914;12.786;2022-08-25T06:17:43;18.83;;;13.27;;
15976;SDS011;8091;51.914;12.786;2022-08-25T06:20:14;22.02;;;14.70;;
15976;SDS011;8091;51.914;12.786;2022-08-25T06:22:41;15.93;;;13.13;;
15976;SDS011;8091;51.914;12.786;2022-08-25T06:25:07;22.77;;;14.05;;
15976;SDS011;8091;51.914;12.786;2022-08-25T06:27:35;18.17;;;12.32;;
15976;SDS011;8091;51.914;12.786;2022-08-25T06:30:01;15.73;;;13.45;;
15976;SDS011;8091;51.914;12.786;2022-08-25T06:32:35;23.95;;;12.60;;
15976;SDS011;8091;51.914;12.786;2022-08-25T06:35:03;15.27;;;12.23;;
15976;SDS011;8091;51.914;12.786;2022-08-25T06:37:29;16.20;;;13.20;;
15976;SDS011;8091;51.914;12.786;2022-08-25T06:39:55;22.20;;;12.75;;
15976;SDS011;8091;51.914;12.786;2022-08-25T06:42:20;15.68;;;12.32;;
15976;SDS011;8091;51.914;12.786;2022-08-25T06:44:46;18.73;;;11.88;;
15976;SDS011;8091;51.914;12.786;2022-08-25T06:47:12;14.93;;;10.65;;
15976;SDS011;8091;51.914;12.786;2022-08-25T06:49:39;15.68;;;11.38;;
15976;SDS011;8091;51.914;12.786;2022-08-25T06:52:09;17.30;;;10.85;;
15976;SDS011;8091;51.914;12.786;2022-08-25T06:54:35;15.75;;;10.70;;
15976;SDS011;8091;51.914;12.786;2022-08-25T06:57:01;14.18;;;11.20;;
15976;SDS011;8091;51.914;12.786;2022-08-25T06:59:27;12.95;;;10.63;;
15976;SDS011;8091;51.914;12.786;2022-08-25T07:01:53;15.27;;;10.52;;
15976;SDS011;8091;51.914;12.786;2022-08-25T07:04:19;18.45;;;12.10;;
15976;SDS011;8091;51.914;12.786;2022-08-25T07:06:45;15.77;;;11.60;;
15976;SDS011;8091;51.914;12.786;2022-08-25T07:09:11;21.48;;;12.27;;
15976;SDS011;8091;51.914;12.786;2022-08-25T07:11:38;20.25;;;13.65;;
15976;SDS011;8091;51.914;12.786;2022-08-25T07:14:06;18.25;;;12.65;;
15976;SDS011;8091;51.914;12.786;2022-08-25T07:16:33;20.60;;;13.00;;
15976;SDS011;8091;51.914;12.786;2022-08-25T07:19:00;17.23;;;12.27;;
15976;SDS011;8091;51.914;12.786;2022-08-25T07:21:26;22.67;;;12.80;;
15976;SDS011;8091;51.914;12.786;2022-08-25T07:23:54;21.15;;;13.80;;
15976;SDS011;8091;51.914;12.786;2022-08-25T07:26:23;21.63;;;13.82;;
15976;SDS011;8091;51.914;12.786;2022-08-25T07:28:51;17.67;;;12.65;;
15976;SDS011;8091;51.914;12.786;2022-08-25T07:31:18;17.83;;;14.00;;
15976;SDS011;8091;51.914;12.786;2022-08-25T07:33:43;17.02;;;13.10;;
15976;SDS011;8091;51.914;12.786;2022-08-25T07:36:28;17.67;;;13.77;;
15976;SDS011;8091;51.914;12.786;2022-08-25T07:38:55;18.85;;;11.60;;
15976;SDS011;8091;51.914;12.786;2022-08-25T07:41:21;16.35;;;12.23;;
15976;SDS011;8091;51.914;12.786;2022-08-25T07:43:47;21.10;;;13.10;;
15976;SDS011;8091;51.914;12.786;2022-08-25T07:46:13;18.02;;;12.23;;
15976;SDS011;8091;51.914;12.786;2022-08-25T07:48:39;18.02;;;11.77;;
15976;SDS011;8091;51.914;12.786;2022-08-25T07:51:08;20.13;;;13.30;;
15976;SDS011;8091;51.914;12.786;2022-08-25T07:53:36;20.02;;;12.43;;
15976;SDS011;8091;51.914;12.786;2022-08-25T07:56:07;24.33;;;13.10;;
15976;SDS011;8091;51.914;12.786;2022-08-25T07:58:38;16.13;;;10.55;;
15976;SDS011;8091;51.914;12.786;2022-08-25T08:01:05;20.75;;;11.43;;
15976;SDS011;8091;51.914;12.786;2022-08-25T08:03:31;16.40;;;9.68;;
15976;SDS011;8091;51.914;12.786;2022-08-25T08:05:58;12.63;;;10.60;;
15976;SDS011;8091;51.914;12.786;2022-08-25T08:08:25;15.32;;;11.02;;
15976;SDS011;8091;51.914;12.786;2022-08-25T08:10:51;13.70;;;10.05;;
15976;SDS011;8091;51.914;12.786;2022-08-25T08:13:17;15.65;;;10.55;;
15976;SDS011;8091;51.914;12.786;2022-08-25T08:15:43;16.50;;;11.15;;
15976;SDS011;8091;51.914;12.786;2022-08-25T08:18:09;12.20;;;10.20;;
15976;SDS011;8091;51.914;12.786;2022-08-25T08:20:35;14.45;;;9.75;;
15976;SDS011;8091;51.914;12.786;2022-08-25T08:23:01;15.82;;;9.48;;
15976;SDS011;8091;51.914;12.786;2022-08-25T08:25:28;13.18;;;9.55;;
15976;SDS011;8091;51.914;12.786;2022-08-25T08:27:54;13.57;;;9.60;;
15976;SDS011;8091;51.914;12.786;2022-08-25T08:30:20;11.27;;;8.55;;
15976;SDS011;8091;51.914;12.786;2022-08-25T08:32:47;12.23;;;8.13;;
15976;SDS011;8091;51.914;12.786;2022-08-25T08:35:14;11.07;;;8.55;;
15976;SDS011;8091;51.914;12.786;2022-08-25T08:37:42;11.90;;;9.00;;
15976;SDS011;8091;51.914;12.786;2022-08-25T08:40:09;14.18;;;8.20;;
15976;SDS011;8091;51.914;12.786;2022-08-25T08:51:21;13.43;;;8.50;;
15976;SDS011;8091;51.914;12.786;2022-08-25T08:53:52;14.73;;;8.07;;
15976;SDS011;8091;51.914;12.786;2022-08-25T08:58:51;11.40;;;7.53;;
15976;SDS011;8091;51.914;12.786;2022-08-25T09:01:24;12.00;;;7.40;;
15976;SDS011;8091;51.914;12.786;2022-08-25T09:04:40;11.32;;;6.90;;
15976;SDS011;8091;51.914;12.786;2022-08-25T09:06:51;10.15;;;6.88;;
15976;SDS011;8091;51.914;12.786;2022-08-25T09:09:21;16.63;;;7.32;;
15976;SDS011;8091;51.914;12.786;2022-08-25T09:15:07;15.20;;;7.78;;
15976;SDS011;8091;51.914;12.786;2022-08-25T09:28:12;17.50;;;7.68;;
15976;SDS011;8091;51.914;12.786;2022-08-25T09:30:53;18.50;;;7.38;;
15976;SDS011;8091;51.914;12.786;2022-08-25T09:33:22;15.90;;;7.72;;
15976;SDS011;8091;51.914;12.786;2022-08-25T09:35:50;16.08;;;7.85;;
15976;SDS011;8091;51.914;12.786;2022-08-25T09:38:17;11.80;;;7.18;;
15976;SDS011;8091;51.914;12.786;2022-08-25T09:40:45;17.60;;;7.78;;
15976;SDS011;8091;51.914;12.786;2022-08-25T09:43:18;17.70;;;7.28;;
15976;SDS011;8091;51.914;12.786;2022-08-25T09:45:47;13.52;;;6.63;;
15976;SDS011;8091;51.914;12.786;2022-08-25T09:48:32;13.75;;;6.50;;
15976;SDS011;8091;51.914;12.786;2022-08-25T09:53:47;9.90;;;6.20;;
15976;SDS011;8091;51.914;12.786;2022-08-25T09:56:13;11.65;;;6.15;;
15976;SDS011;8091;51.914;12.786;2022-08-25T09:58:38;9.70;;;6.55;;
15976;SDS011;8091;51.914;12.786;2022-08-25T10:01:10;12.27;;;6.68;;
15976;SDS011;8091;51.914;12.786;2022-08-25T10:06:21;12.23;;;6.53;;
15976;SDS011;8091;51.914;12.786;2022-08-25T10:11:14;10.10;;;6.50;;
15976;SDS011;8091;51.914;12.786;2022-08-25T10:14:15;14.20;;;7.78;;
15976;SDS011;8091;51.914;12.786;2022-08-25T10:16:45;12.18;;;6.60;;
15976;SDS011;8091;51.914;12.786;2022-08-25T10:19:28;13.63;;;6.82;;
15976;SDS011;8091;51.914;12.786;2022-08-25T10:22:10;12.35;;;6.13;;
15976;SDS011;8091;51.914;12.786;2022-08-25T10:24:46;10.65;;;6.93;;
15976;SDS011;8091;51.914;12.786;2022-08-25T10:27:17;13.85;;;6.55;;
15976;SDS011;8091;51.914;12.786;2022-08-25T10:29:53;14.68;;;6.55;;
15976;SDS011;8091;51.914;12.786;2022-08-25T10:35:22;10.85;;;6.57;;
15976;SDS011;8091;51.914;12.786;2022-08-25T10:41:38;13.48;;;6.63;;
15976;SDS011;8091;51.914;12.786;2022-08-25T10:47:17;12.48;;;6.57;;
15976;SDS011;8091;51.914;12.786;2022-08-25T10:53:07;9.40;;;5.50;;
15976;SDS011;8091;51.914;12.786;2022-08-25T10:55:58;13.63;;;6.18;;
15976;SDS011;8091;51.914;12.786;2022-08-25T11:01:41;6.57;;;5.32;;
15976;SDS011;8091;51.914;12.786;2022-08-25T11:07:12;15.45;;;5.95;;
15976;SDS011;8091;51.914;12.786;2022-08-25T11:09:39;10.68;;;5.38;;
15976;SDS011;8091;51.914;12.786;2022-08-25T11:12:12;15.38;;;6.05;;
15976;SDS011;8091;51.914;12.786;2022-08-25T11:14:48;9.98;;;6.10;;
15976;SDS011;8091;51.914;12.786;2022-08-25T11:19:48;9.48;;;5.88;;
15976;SDS011;8091;51.914;12.786;2022-08-25T11:30:37;10.77;;;5.38;;
15976;SDS011;8091;51.914;12.786;2022-08-25T11:33:03;13.55;;;5.93;;
15976;SDS011;8091;51.914;12.786;2022-08-25T11:35:36;11.35;;;6.30;;
15976;SDS011;8091;51.914;12.786;2022-08-25T11:38:11;12.45;;;6.13;;
15976;SDS011;8091;51.914;12.786;2022-08-25T11:43:37;18.48;;;6.18;;
15976;SDS011;8091;51.914;12.786;2022-08-25T11:49:18;8.68;;;5.45;;
15976;SDS011;8091;51.914;12.786;2022-08-25T11:51:50;13.65;;;5.80;;
15976;SDS011;8091;51.914;12.786;2022-08-25T11:54:21;11.95;;;6.10;;
15976;SDS011;8091;51.914;12.786;2022-08-25T11:57:02;10.35;;;5.00;;
15976;SDS011;8091;51.914;12.786;2022-08-25T12:02:27;8.02;;;5.38;;
15976;SDS011;8091;51.914;12.786;2022-08-25T12:10:22;11.98;;;6.10;;
15976;SDS011;8091;51.914;12.786;2022-08-25T12:13:03;12.85;;;6.13;;
15976;SDS011;8091;51.914;12.786;2022-08-25T12:18:12;18.17;;;6.15;;
15976;SDS011;8091;51.914;12.786;2022-08-25T12:23:31;16.10;;;5.72;;
15976;SDS011;8091;51.914;12.786;2022-08-25T12:29:40;13.45;;;5.85;;
15976;SDS011;8091;51.914;12.786;2022-08-25T12:34:35;14.82;;;6.15;;
15976;SDS011;8091;51.914;12.786;2022-08-25T12:39:43;11.15;;;6.10;;
15976;SDS011;8091;51.914;12.786;2022-08-25T12:42:29;16.42;;;5.40;;
15976;SDS011;8091;51.914;12.786;2022-08-25T12:47:40;10.40;;;5.97;;
15976;SDS011;8091;51.914;12.786;2022-08-25T12:53:06;11.60;;;5.30;;
15976;SDS011;8091;51.914;12.786;2022-08-25T12:55:47;18.05;;;5.40;;
15976;SDS011;8091;51.914;12.786;2022-08-25T12:58:34;13.93;;;5.38;;
15976;SDS011;8091;51.914;12.786;2022-08-25T13:01:24;10.55;;;5.70;;
15976;SDS011;8091;51.914;12.786;2022-08-25T13:07:06;15.30;;;6.20;;
15976;SDS011;8091;51.914;12.786;2022-08-25T13:14:58;13.00;;;5.22;;
15976;SDS011;8091;51.914;12.786;2022-08-25T13:17:32;13.30;;;5.82;;
15976;SDS011;8091;51.914;12.786;2022-08-25T13:20:12;16.42;;;6.47;;
15976;SDS011;8091;51.914;12.786;2022-08-25T13:22:38;15.95;;;5.95;;
15976;SDS011;8091;51.914;12.786;2022-08-25T13:25:05;13.45;;;6.75;;
15976;SDS011;8091;51.914;12.786;2022-08-25T13:27:32;8.73;;;5.53;;
15976;SDS011;8091;51.914;12.786;2022-08-25T13:29:59;13.40;;;5.45;;
15976;SDS011;8091;51.914;12.786;2022-08-25T13:32:33;14.43;;;6.38;;
15976;SDS011;8091;51.914;12.786;2022-08-25T13:37:39;11.90;;;6.15;;
15976;SDS011;8091;51.914;12.786;2022-08-25T13:40:20;10.45;;;5.68;;
15976;SDS011;8091;51.914;12.786;2022-08-25T13:42:58;12.07;;;5.40;;
15976;SDS011;8091;51.914;12.786;2022-08-25T13:45:31;16.30;;;6.57;;
15976;SDS011;8091;51.914;12.786;2022-08-25T13:48:01;16.13;;;8.88;;
15976;SDS011;8091;51.914;12.786;2022-08-25T13:53:04;21.50;;;8.73;;
15976;SDS011;8091;51.914;12.786;2022-08-25T13:55:40;29.38;;;15.30;;
15976;SDS011;8091;51.914;12.786;2022-08-25T13:58:17;22.83;;;13.07;;
15976;SDS011;8091;51.914;12.786;2022-08-25T14:01:08;14.23;;;6.20;;
15976;SDS011;8091;51.914;12.786;2022-08-25T14:03:44;9.93;;;5.75;;
15976;SDS011;8091;51.914;12.786;2022-08-25T14:08:43;10.52;;;5.72;;
15976;SDS011;8091;51.914;12.786;2022-08-25T14:11:12;15.23;;;6.05;;
15976;SDS011;8091;51.914;12.786;2022-08-25T14:14:00;10.57;;;5.57;;
15976;SDS011;8091;51.914;12.786;2022-08-25T14:16:28;11.90;;;5.00;;
15976;SDS011;8091;51.914;12.786;2022-08-25T14:18:59;11.02;;;5.57;;
15976;SDS011;8091;51.914;12.786;2022-08-25T14:21:29;10.45;;;5.95;;
15976;SDS011;8091;51.914;12.786;2022-08-25T14:23:56;12.30;;;5.43;;
15976;SDS011;8091;51.914;12.786;2022-08-25T14:26:23;19.40;;;5.68;;
15976;SDS011;8091;51.914;12.786;2022-08-25T14:28:49;11.60;;;5.20;;
15976;SDS011;8091;51.914;12.786;2022-08-25T14:31:17;14.60;;;5.35;;
15976;SDS011;8091;51.914;12.786;2022-08-25T14:34:03;12.93;;;5.43;;
15976;SDS011;8091;51.914;12.786;2022-08-25T14:36:30;10.52;;;5.07;;
15976;SDS011;8091;51.914;12.786;2022-08-25T14:38:59;15.90;;;5.43;;
15976;SDS011;8091;51.914;12.786;2022-08-25T14:41:29;13.73;;;5.60;;
15976;SDS011;8091;51.914;12.786;2022-08-25T14:43:58;11.45;;;5.75;;
15976;SDS011;8091;51.914;12.786;2022-08-25T14:46:26;15.18;;;5.72;;
15976;SDS011;8091;51.914;12.786;2022-08-25T14:49:03;10.15;;;5.35;;
15976;SDS011;8091;51.914;12.786;2022-08-25T14:51:31;12.68;;;5.57;;
15976;SDS011;8091;51.914;12.786;2022-08-25T14:54:02;19.08;;;5.82;;
15976;SDS011;8091;51.914;12.786;2022-08-25T14:56:30;21.63;;;6.07;;
15976;SDS011;8091;51.914;12.786;2022-08-25T14:58:57;17.20;;;4.95;;
15976;SDS011;8091;51.914;12.786;2022-08-25T15:01:23;14.60;;;5.68;;
15976;SDS011;8091;51.914;12.786;2022-08-25T15:03:51;18.40;;;5.88;;
15976;SDS011;8091;51.914;12.786;2022-08-25T15:06:20;18.83;;;5.35;;
15976;SDS011;8091;51.914;12.786;2022-08-25T15:08:46;17.80;;;5.45;;
15976;SDS011;8091;51.914;12.786;2022-08-25T15:11:30;17.35;;;5.88;;
15976;SDS011;8091;51.914;12.786;2022-08-25T15:13:57;14.18;;;6.00;;
15976;SDS011;8091;51.914;12.786;2022-08-25T15:16:30;12.63;;;4.95;;
15976;SDS011;8091;51.914;12.786;2022-08-25T15:19:02;15.05;;;5.43;;
15976;SDS011;8091;51.914;12.786;2022-08-25T15:21:30;19.55;;;5.47;;
15976;SDS011;8091;51.914;12.786;2022-08-25T15:23:56;16.65;;;6.65;;
15976;SDS011;8091;51.914;12.786;2022-08-25T15:26:22;17.75;;;6.10;;
15976;SDS011;8091;51.914;12.786;2022-08-25T15:28:49;17.98;;;5.55;;
15976;SDS011;8091;51.914;12.786;2022-08-25T15:31:15;16.08;;;5.82;;
15976;SDS011;8091;51.914;12.786;2022-08-25T15:33:43;20.85;;;6.57;;
15976;SDS011;8091;51.914;12.786;2022-08-25T15:36:10;19.17;;;6.03;;
15976;SDS011;8091;51.914;12.786;2022-08-25T15:38:39;13.80;;;5.47;;
15976;SDS011;8091;51.914;12.786;2022-08-25T15:41:08;17.48;;;5.95;;
15976;SDS011;8091;51.914;12.786;2022-08-25T15:43:34;15.73;;;5.88;;
15976;SDS011;8091;51.914;12.786;2022-08-25T15:46:00;12.93;;;5.88;;
15976;SDS011;8091;51.914;12.786;2022-08-25T15:48:28;10.75;;;5.93;;
15976;SDS011;8091;51.914;12.786;2022-08-25T15:50:54;21.23;;;6.38;;
15976;SDS011;8091;51.914;12.786;2022-08-25T15:53:22;15.45;;;5.70;;
15976;SDS011;8091;51.914;12.786;2022-08-25T15:55:50;16.13;;;5.38;;
15976;SDS011;8091;51.914;12.786;2022-08-25T15:58:16;16.42;;;5.88;;
15976;SDS011;8091;51.914;12.786;2022-08-25T16:00:42;25.52;;;6.20;;
15976;SDS011;8091;51.914;12.786;2022-08-25T16:03:08;22.90;;;6.10;;
15976;SDS011;8091;51.914;12.786;2022-08-25T16:05:35;17.80;;;6.57;;
15976;SDS011;8091;51.914;12.786;2022-08-25T16:08:01;20.38;;;5.72;;
15976;SDS011;8091;51.914;12.786;2022-08-25T16:10:26;18.80;;;5.85;;
15976;SDS011;8091;51.914;12.786;2022-08-25T16:12:52;16.70;;;5.80;;
15976;SDS011;8091;51.914;12.786;2022-08-25T16:15:18;13.48;;;5.22;;
15976;SDS011;8091;51.914;12.786;2022-08-25T16:17:44;13.77;;;5.50;;
15976;SDS011;8091;51.914;12.786;2022-08-25T16:20:09;16.10;;;5.63;;
15976;SDS011;8091;51.914;12.786;2022-08-25T16:22:35;20.85;;;6.05;;
15976;SDS011;8091;51.914;12.786;2022-08-25T16:25:01;28.10;;;6.55;;
15976;SDS011;8091;51.914;12.786;2022-08-25T16:27:27;15.93;;;5.43;;
15976;SDS011;8091;51.914;12.786;2022-08-25T16:29:53;19.20;;;5.90;;
15976;SDS011;8091;51.914;12.786;2022-08-25T16:32:19;22.02;;;6.55;;
15976;SDS011;8091;51.914;12.786;2022-08-25T16:34:44;13.93;;;5.50;;
15976;SDS011;8091;51.914;12.786;2022-08-25T16:37:11;19.35;;;5.90;;
15976;SDS011;8091;51.914;12.786;2022-08-25T16:39:37;18.20;;;6.05;;